Time;durP1;ratioP1;P1;durP2;ratioP2;P2;SDS_P1;SDS_P2;PMS_P1;PMS_P2;Temp;Humidity;BMP_temperature;BMP_pressure;BME280_temperature;BME280_humidity;BME280_pressure;Samples;Min_cycle;Max_cycle;Signal;HPM_P1;HPM_P2
2022/12/27 00:01:28;;;;;;;38.92;21.17;;;14.20;67.40;;;;;;4993915;28;20029;-86
2022/12/27 00:03:54;;;;;;;38.13;21.23;;;14.70;66.30;;;;;;5010807;28;20026;-85
2022/12/27 00:06:25;;;;;;;33.20;19.30;;;14.90;64.90;;;;;;4995028;28;20101;-83
2022/12/27 00:08:58;;;;;;;37.47;21.83;;;15.00;65.30;;;;;;4983710;28;20031;-82
2022/12/27 00:11:26;;;;;;;33.67;20.17;;;15.10;64.70;;;;;;4956188;29;20130;-83
2022/12/27 00:13:52;;;;;;;37.00;20.40;;;15.00;64.60;;;;;;4955280;29;20027;-85
2022/12/27 00:16:19;;;;;;;37.65;20.90;;;14.70;65.60;;;;;;4955129;29;20053;-88
2022/12/27 00:18:46;;;;;;;39.00;21.50;;;14.70;65.60;;;;;;4956256;29;20034;-82
2022/12/27 00:21:13;;;;;;;33.58;20.60;;;14.70;65.50;;;;;;4955212;29;20035;-81
2022/12/27 00:23:41;;;;;;;34.30;20.27;;;14.80;65.30;;;;;;4956060;29;20031;-84
2022/12/27 00:26:13;;;;;;;35.63;20.27;;;15.00;65.10;;;;;;4957885;28;20059;-83
2022/12/27 00:28:39;;;;;;;30.00;16.98;;;15.10;65.20;;;;;;4975596;28;20030;-83
2022/12/27 00:31:05;;;;;;;29.48;18.10;;;15.00;65.10;;;;;;4975168;28;20027;-84
2022/12/27 00:33:32;;;;;;;29.40;18.13;;;15.10;65.00;;;;;;4958194;28;20054;-83
2022/12/27 00:36:00;;;;;;;28.00;16.73;;;15.40;65.00;;;;;;4958706;28;20092;-83
2022/12/27 00:38:26;;;;;;;27.13;16.73;;;15.50;64.40;;;;;;4961514;28;20031;-83
2022/12/27 00:40:51;;;;;;;27.38;16.27;;;15.60;64.40;;;;;;4961896;28;20081;-83
2022/12/27 00:43:17;;;;;;;26.50;16.48;;;15.70;64.30;;;;;;4978994;28;20026;-86
2022/12/27 00:46:10;;;;;;;27.42;17.00;;;16.00;63.60;;;;;;4979393;28;20432;-83
2022/12/27 00:48:36;;;;;;;25.95;17.48;;;16.10;63.60;;;;;;4979639;28;20067;-87
2022/12/27 00:51:17;;;;;;;27.95;17.08;;;15.80;63.90;;;;;;4978709;28;20030;-83
2022/12/27 00:53:43;;;;;;;27.27;16.65;;;15.70;64.40;;;;;;4961667;28;20031;-83
2022/12/27 00:56:15;;;;;;;26.02;16.50;;;15.60;64.30;;;;;;4978683;28;20097;-85
2022/12/27 00:58:41;;;;;;;26.67;16.98;;;15.60;64.20;;;;;;4961211;28;20031;-82
2022/12/27 01:01:18;;;;;;;25.90;16.83;;;15.40;64.60;;;;;;4961834;28;20023;-83
2022/12/27 01:03:45;;;;;;;27.40;16.85;;;15.20;65.30;;;;;;4961637;28;20030;-85
2022/12/27 01:06:14;;;;;;;26.67;16.02;;;15.10;66.20;;;;;;4951388;28;20085;-83
2022/12/27 01:08:40;;;;;;;26.13;17.17;;;15.20;65.90;;;;;;4967548;28;20019;-84
2022/12/27 01:11:07;;;;;;;27.90;16.80;;;15.30;65.10;;;;;;4955376;29;20055;-85
2022/12/27 01:13:33;;;;;;;28.13;16.58;;;15.40;65.30;;;;;;4971546;28;20027;-81
2022/12/27 01:15:59;;;;;;;26.60;16.70;;;15.50;65.20;;;;;;4978245;28;20529;-84
2022/12/27 01:18:25;;;;;;;28.50;17.90;;;15.50;65.10;;;;;;4978228;28;20023;-84
2022/12/27 01:20:51;;;;;;;28.85;17.63;;;15.50;65.80;;;;;;4993187;28;20041;-83
2022/12/27 01:23:17;;;;;;;25.17;16.38;;;15.40;65.60;;;;;;4977720;28;20390;-83
2022/12/27 01:25:42;;;;;;;24.33;15.13;;;15.30;65.90;;;;;;4977235;28;20043;-82
2022/12/27 01:28:08;;;;;;;23.27;14.82;;;15.10;66.60;;;;;;4977946;28;20027;-85
2022/12/27 01:30:34;;;;;;;20.70;14.10;;;15.20;66.60;;;;;;4977963;28;20050;-84
2022/12/27 01:32:59;;;;;;;22.50;13.57;;;15.10;67.10;;;;;;4992940;28;20428;-84
2022/12/27 01:35:25;;;;;;;23.42;13.93;;;15.10;66.70;;;;;;4976690;28;20030;-84
2022/12/27 01:37:51;;;;;;;19.67;12.30;;;15.40;66.20;;;;;;4993081;28;20046;-84
2022/12/27 01:40:17;;;;;;;21.05;12.15;;;15.40;65.70;;;;;;4993001;28;20023;-83
2022/12/27 01:42:51;;;;;;;18.50;11.13;;;15.30;66.20;;;;;;4976490;28;20489;-85
2022/12/27 01:45:31;;;;;;;16.05;11.07;;;14.90;67.40;;;;;;4992843;28;20035;-85
2022/12/27 01:48:18;;;;;;;15.98;10.05;;;15.00;67.40;;;;;;4992671;28;20030;-88
2022/12/27 01:50:48;;;;;;;15.82;9.55;;;15.30;66.10;;;;;;4976695;28;20031;-85
2022/12/27 01:53:40;;;;;;;15.15;9.48;;;15.20;66.20;;;;;;4977012;28;20031;-84
2022/12/27 01:56:14;;;;;;;15.40;9.48;;;15.00;66.80;;;;;;4992361;28;20026;-85
2022/12/27 01:58:49;;;;;;;14.85;9.00;;;15.10;66.90;;;;;;4977571;28;20505;-83
2022/12/27 02:01:25;;;;;;;13.88;8.10;;;15.30;66.10;;;;;;4992495;28;20027;-86
2022/12/27 02:04:01;;;;;;;11.15;8.15;;;15.40;66.00;;;;;;4992452;28;20053;-85
2022/12/27 02:06:29;;;;;;;13.73;8.88;;;15.50;65.50;;;;;;4976187;28;20430;-83
2022/12/27 02:09:01;;;;;;;14.55;8.90;;;15.30;65.90;;;;;;4992117;28;20378;-86
2022/12/27 02:11:55;;;;;;;13.43;8.95;;;15.40;65.90;;;;;;4977435;28;20125;-84
2022/12/27 02:14:27;;;;;;;14.88;8.90;;;15.50;65.80;;;;;;4975537;28;20046;-84
2022/12/27 02:16:55;;;;;;;14.68;8.23;;;15.60;65.50;;;;;;4963801;28;20023;-88
2022/12/27 02:19:36;;;;;;;12.80;8.55;;;15.70;64.80;;;;;;4967750;28;20027;-87
2022/12/27 02:22:24;;;;;;;13.02;8.48;;;15.70;63.90;;;;;;4953731;29;20115;-82
2022/12/27 02:25:18;;;;;;;12.77;8.15;;;15.50;65.30;;;;;;4969955;28;20054;-83
2022/12/27 02:28:15;;;;;;;13.77;8.27;;;15.60;65.30;;;;;;4959602;28;20075;-83
2022/12/27 02:30:43;;;;;;;15.02;8.50;;;15.90;64.50;;;;;;4955923;28;20024;-83
2022/12/27 02:33:18;;;;;;;14.20;8.10;;;16.10;63.60;;;;;;4956080;28;21193;-87
2022/12/27 02:35:56;;;;;;;13.25;8.68;;;16.00;64.00;;;;;;4970887;28;20034;-87
2022/12/27 02:38:30;;;;;;;12.45;7.45;;;15.90;64.70;;;;;;4956517;28;20032;-83
2022/12/27 02:53:06;;;;;;;15.05;8.27;;;15.80;64.30;;;;;;4957732;29;20549;-83
2022/12/27 02:58:56;;;;;;;13.63;8.50;;;16.00;64.20;;;;;;4961100;28;20135;-84
2022/12/27 03:04:44;;;;;;;15.70;8.68;;;15.90;64.30;;;;;;4976145;28;19968;-84
2022/12/27 03:08:00;;;;;;;15.18;9.23;;;16.00;63.80;;;;;;4976204;28;20035;-89
2022/12/27 03:16:15;;;;;;;13.73;8.90;;;15.40;65.00;;;;;;4930766;29;20051;-85
2022/12/27 03:18:48;;;;;;;19.90;9.18;;;15.40;65.20;;;;;;4919487;29;20028;-85
2022/12/27 03:27:30;;;;;;;15.20;9.85;;;15.60;64.90;;;;;;4936121;29;20075;-84
2022/12/27 03:33:15;;;;;;;16.65;9.45;;;15.50;64.60;;;;;;4924119;29;20047;-85
2022/12/27 03:39:09;;;;;;;14.20;8.68;;;15.30;64.50;;;;;;4935056;29;20066;-88
2022/12/27 03:45:04;;;;;;;14.30;8.05;;;15.00;65.20;;;;;;4919183;29;20472;-84
2022/12/27 03:47:37;;;;;;;13.63;8.50;;;15.10;65.00;;;;;;4953621;29;20042;-85
2022/12/27 03:50:12;;;;;;;11.88;7.45;;;15.40;64.60;;;;;;4957259;29;20437;-85
2022/12/27 03:53:10;;;;;;;13.82;7.75;;;15.60;63.50;;;;;;4970570;28;20090;-85
2022/12/27 03:55:37;;;;;;;15.60;8.65;;;15.50;63.60;;;;;;4948230;29;20402;-84
2022/12/27 03:58:06;;;;;;;15.80;9.32;;;15.40;64.40;;;;;;4951508;28;20046;-85
2022/12/27 04:00:38;;;;;;;14.85;9.15;;;15.40;63.90;;;;;;4978092;28;20112;-84
2022/12/27 04:03:07;;;;;;;15.88;9.73;;;15.30;64.60;;;;;;4994511;28;20408;-88
2022/12/27 04:05:33;;;;;;;16.20;10.38;;;15.20;64.50;;;;;;4993833;28;20125;-87
2022/12/27 04:35:19;;;;;;;19.17;11.70;;;15.20;64.70;;;;;;4979509;28;20046;-80
2022/12/27 04:37:45;;;;;;;18.00;11.73;;;14.90;65.50;;;;;;4961990;28;20071;-86
2022/12/27 04:56:41;;;;;;;15.93;10.00;;;14.40;66.80;;;;;;4978627;28;20390;-88
2022/12/27 05:02:03;;;;;;;16.75;11.60;;;14.40;66.80;;;;;;4979038;28;20085;-85
2022/12/27 05:04:34;;;;;;;14.73;10.05;;;14.30;66.50;;;;;;4961098;28;20038;-85
2022/12/27 05:13:58;;;;;;;15.93;10.82;;;14.30;66.80;;;;;;4961359;28;20049;-84
2022/12/27 05:15:14;;;;;;;17.15;11.35;;;14.10;66.80;;;;;;4978548;28;20091;-83
2022/12/27 05:17:40;;;;;;;14.57;10.02;;;14.10;66.90;;;;;;4961057;28;20042;-85
2022/12/27 05:20:06;;;;;;;15.77;9.90;;;14.30;66.50;;;;;;4978551;28;20537;-84
2022/12/27 05:25:34;;;;;;;16.45;9.90;;;14.60;65.80;;;;;;4978160;28;20089;-82
2022/12/27 05:28:06;;;;;;;17.70;10.88;;;14.60;64.80;;;;;;4960952;28;20022;-84
2022/12/27 05:30:33;;;;;;;14.15;9.00;;;14.70;64.80;;;;;;4978278;28;20098;-87
2022/12/27 05:32:59;;;;;;;13.70;9.15;;;14.80;64.70;;;;;;4960918;28;20081;-84
2022/12/27 05:35:25;;;;;;;13.45;8.93;;;14.50;65.10;;;;;;4978064;28;20031;-84
2022/12/27 05:37:53;;;;;;;13.73;9.65;;;14.60;64.90;;;;;;4961092;28;20113;-84
2022/12/27 05:40:20;;;;;;;11.80;8.20;;;14.50;65.40;;;;;;4960797;28;20026;-84
2022/12/27 05:42:45;;;;;;;12.35;8.50;;;14.40;65.40;;;;;;4978079;28;20470;-84
2022/12/27 05:45:11;;;;;;;13.20;9.15;;;14.60;65.40;;;;;;4961069;28;20049;-84
2022/12/27 05:47:37;;;;;;;14.75;8.02;;;14.70;65.30;;;;;;4960653;28;20054;-85
2022/12/27 05:50:03;;;;;;;12.63;8.70;;;14.60;65.10;;;;;;4960435;28;20023;-85
2022/12/27 05:52:29;;;;;;;14.32;9.30;;;14.60;65.20;;;;;;4960251;28;20023;-84
2022/12/27 05:54:55;;;;;;;12.55;8.75;;;14.70;64.70;;;;;;4977689;28;20429;-83
2022/12/27 05:57:21;;;;;;;14.70;9.15;;;14.50;65.00;;;;;;4961100;28;20470;-80
2022/12/27 05:59:46;;;;;;;11.85;8.13;;;14.30;65.60;;;;;;4960359;28;20117;-82
2022/12/27 06:02:12;;;;;;;13.13;8.82;;;14.50;65.00;;;;;;4960229;28;20022;-82
2022/12/27 06:04:38;;;;;;;13.60;9.00;;;14.30;65.80;;;;;;4971495;28;20035;-80
2022/12/27 06:07:03;;;;;;;12.25;8.60;;;14.40;65.40;;;;;;4957095;29;20372;-83
2022/12/27 06:09:29;;;;;;;12.63;8.30;;;14.30;65.50;;;;;;4941164;29;20466;-87
2022/12/27 06:11:55;;;;;;;10.15;7.30;;;14.30;65.10;;;;;;4941098;29;20147;-84
2022/12/27 06:14:21;;;;;;;11.38;7.78;;;14.30;65.10;;;;;;4941014;29;20054;-83
2022/12/27 06:16:46;;;;;;;11.77;7.78;;;14.10;65.50;;;;;;4943821;29;20462;-83
2022/12/27 06:19:12;;;;;;;13.45;7.32;;;14.20;64.90;;;;;;4953088;28;20035;-84
2022/12/27 06:21:38;;;;;;;10.55;6.70;;;14.30;65.00;;;;;;4959460;28;20050;-83
2022/12/27 06:24:04;;;;;;;13.30;7.78;;;14.10;65.40;;;;;;4975622;28;20109;-85
2022/12/27 06:26:30;;;;;;;12.82;7.75;;;14.30;65.00;;;;;;4952275;29;20038;-83
2022/12/27 06:28:57;;;;;;;11.70;7.88;;;14.60;64.60;;;;;;4940119;29;20028;-82
2022/12/27 06:31:23;;;;;;;10.70;7.68;;;14.30;64.70;;;;;;4945695;28;20039;-84
2022/12/27 06:33:50;;;;;;;11.73;7.28;;;14.40;65.20;;;;;;4958124;28;20023;-84
2022/12/27 06:36:18;;;;;;;10.65;6.72;;;14.70;63.90;;;;;;4947827;28;20054;-78
2022/12/27 06:38:47;;;;;;;9.48;7.25;;;14.70;63.70;;;;;;4940953;29;20032;-84
2022/12/27 06:41:18;;;;;;;10.43;7.05;;;14.70;63.80;;;;;;4957604;28;20030;-77
2022/12/27 06:43:47;;;;;;;10.45;7.15;;;14.40;64.40;;;;;;4980517;28;20019;-77
2022/12/27 06:46:19;;;;;;;10.25;6.75;;;14.20;64.70;;;;;;4981415;28;20027;-79
2022/12/27 06:48:46;;;;;;;10.20;7.35;;;14.30;64.80;;;;;;4959040;28;20038;-86
2022/12/27 06:51:13;;;;;;;10.05;6.85;;;14.30;64.40;;;;;;4959132;28;20054;-85
2022/12/27 06:53:39;;;;;;;8.93;6.65;;;14.50;64.00;;;;;;4959202;28;20061;-82
2022/12/27 06:56:07;;;;;;;9.07;6.03;;;14.60;64.30;;;;;;4959309;28;20066;-85
2022/12/27 06:58:33;;;;;;;8.90;6.10;;;14.80;63.20;;;;;;4976226;28;20054;-81
2022/12/27 07:01:13;;;;;;;8.95;5.80;;;14.50;63.70;;;;;;4960139;28;20026;-81
2022/12/27 07:03:39;;;;;;;8.60;5.65;;;14.40;64.10;;;;;;4973275;28;20050;-85
2022/12/27 07:06:06;;;;;;;8.75;5.47;;;14.50;63.90;;;;;;4939350;29;20134;-80
2022/12/27 07:08:33;;;;;;;9.43;5.38;;;14.40;63.90;;;;;;4956905;29;20015;-81
2022/12/27 07:11:08;;;;;;;7.10;5.13;;;14.10;65.10;;;;;;4939643;29;20394;-85
2022/12/27 07:13:36;;;;;;;7.57;4.88;;;14.30;64.40;;;;;;4976110;28;20046;-86
2022/12/27 07:16:06;;;;;;;7.70;4.65;;;14.40;64.00;;;;;;4976122;28;20038;-89
2022/12/27 07:18:32;;;;;;;7.00;4.80;;;14.40;64.30;;;;;;4958884;28;20118;-80
2022/12/27 07:20:58;;;;;;;6.68;4.75;;;14.50;64.10;;;;;;4614305;28;9999634;-78
2022/12/27 07:23:24;;;;;;;6.38;4.15;;;14.70;63.70;;;;;;4943453;29;20071;-87
2022/12/27 07:25:50;;;;;;;6.57;4.15;;;14.60;63.00;;;;;;4955475;28;20043;-83
2022/12/27 07:28:16;;;;;;;7.10;4.47;;;14.30;64.30;;;;;;4975499;28;20051;-84
2022/12/27 07:30:42;;;;;;;5.68;3.92;;;14.30;63.90;;;;;;4957539;28;20054;-84
2022/12/27 07:33:08;;;;;;;6.43;4.30;;;14.10;64.40;;;;;;4957565;28;20023;-85
2022/12/27 07:35:34;;;;;;;6.28;4.75;;;14.50;64.20;;;;;;4957676;28;20046;-82
2022/12/27 07:37:59;;;;;;;6.82;4.47;;;14.40;63.70;;;;;;4962351;28;20455;-88
2022/12/27 07:40:34;;;;;;;7.03;4.18;;;14.50;63.60;;;;;;4964415;28;20029;-78
2022/12/27 07:43:00;;;;;;;7.22;4.30;;;14.60;63.10;;;;;;4955503;28;20030;-84
2022/12/27 07:45:26;;;;;;;7.53;3.90;;;14.60;63.90;;;;;;4955968;28;20058;-83
2022/12/27 07:47:52;;;;;;;4.68;3.45;;;14.80;63.20;;;;;;4953947;28;20019;-86
2022/12/27 07:50:17;;;;;;;6.00;4.00;;;14.90;62.40;;;;;;4940095;28;20566;-88
2022/12/27 07:52:43;;;;;;;5.72;3.83;;;14.60;63.40;;;;;;4952978;28;20078;-79
2022/12/27 07:55:09;;;;;;;6.78;4.30;;;15.00;62.80;;;;;;4968999;28;20382;-85
2022/12/27 07:57:37;;;;;;;5.88;3.80;;;14.90;62.30;;;;;;4952582;28;20026;-84
2022/12/27 08:00:04;;;;;;;5.25;3.63;;;14.90;62.50;;;;;;4947255;28;20093;-83
2022/12/27 08:02:32;;;;;;;7.43;3.30;;;15.00;62.50;;;;;;4961578;28;20453;-82
2022/12/27 08:04:59;;;;;;;5.38;3.60;;;15.40;61.20;;;;;;4953870;28;20039;-84
2022/12/27 08:07:25;;;;;;;5.05;3.15;;;15.50;61.10;;;;;;4944964;28;20082;-84
2022/12/27 08:09:57;;;;;;;4.72;3.38;;;15.60;60.80;;;;;;4954538;28;20038;-81
2022/12/27 08:12:24;;;;;;;5.55;3.33;;;15.40;61.00;;;;;;4969851;28;20501;-87
2022/12/27 08:14:49;;;;;;;5.28;3.40;;;15.30;61.40;;;;;;4972610;28;20039;-86
2022/12/27 08:17:19;;;;;;;4.20;3.10;;;15.50;61.20;;;;;;4973718;28;20038;-82
2022/12/27 08:19:46;;;;;;;5.55;3.05;;;15.80;60.70;;;;;;4972744;28;20394;-85
2022/12/27 08:22:12;;;;;;;4.53;2.88;;;15.60;60.50;;;;;;4964156;28;20039;-84
2022/12/27 08:24:47;;;;;;;4.18;2.67;;;15.10;61.30;;;;;;4956169;28;20035;-82
2022/12/27 08:27:22;;;;;;;7.15;3.50;;;15.20;61.00;;;;;;4974873;28;20113;-83
2022/12/27 08:29:51;;;;;;;4.15;2.50;;;14.80;61.90;;;;;;4972833;28;20047;-82
2022/12/27 08:32:17;;;;;;;5.50;3.30;;;14.60;61.50;;;;;;4970494;28;20035;-86
2022/12/27 08:34:42;;;;;;;3.75;2.13;;;14.60;61.40;;;;;;4956003;28;20031;-84
2022/12/27 08:37:08;;;;;;;7.13;3.72;;;14.40;61.70;;;;;;4986953;28;20467;-86
2022/12/27 08:39:34;;;;;;;4.28;2.15;;;14.50;61.90;;;;;;4989200;28;20021;-83
2022/12/27 08:42:00;;;;;;;4.25;2.40;;;14.90;60.70;;;;;;4972921;28;20095;-81
2022/12/27 08:44:26;;;;;;;3.72;2.63;;;15.10;60.10;;;;;;4962620;28;20121;-83
2022/12/27 08:47:03;;;;;;;13.20;1.85;;;15.10;60.50;;;;;;4973687;28;20023;-85
2022/12/27 08:49:29;;;;;;;7.60;2.17;;;15.20;60.00;;;;;;4972990;28;20118;-85
2022/12/27 08:51:54;;;;;;;89.88;53.72;;;15.40;59.40;;;;;;4963902;28;20110;-87
2022/12/27 08:54:20;;;;;;;115.32;55.85;;;15.40;58.50;;;;;;4961945;28;20090;-86
2022/12/27 08:56:46;;;;;;;13.70;8.40;;;15.30;59.50;;;;;;4973595;28;20062;-85
2022/12/27 08:59:12;;;;;;;158.98;124.65;;;15.00;59.50;;;;;;4969928;28;20078;-85
2022/12/27 09:01:38;;;;;;;25.00;18.58;;;15.30;59.80;;;;;;4977720;28;20027;-87
2022/12/27 09:04:04;;;;;;;68.18;59.65;;;15.40;59.10;;;;;;4990366;28;20031;-85
2022/12/27 09:06:29;;;;;;;82.47;74.95;;;15.70;59.10;;;;;;4969654;28;20035;-83
2022/12/27 09:08:56;;;;;;;18.48;16.83;;;16.20;57.40;;;;;;4968710;28;20363;-83
2022/12/27 09:11:37;;;;;;;9.90;7.50;;;16.80;56.20;;;;;;4989639;28;20097;-83
2022/12/27 09:14:04;;;;;;;11.45;8.57;;;18.20;54.10;;;;;;4971335;28;20026;-82
2022/12/27 09:16:32;;;;;;;26.20;19.95;;;18.80;51.90;;;;;;4970110;28;20026;-84
2022/12/27 09:18:59;;;;;;;25.25;20.20;;;18.20;53.20;;;;;;4970884;28;20030;-82
2022/12/27 09:21:27;;;;;;;8.80;5.90;;;18.70;52.10;;;;;;4976660;28;20435;-83
2022/12/27 09:23:54;;;;;;;8.55;5.57;;;19.10;51.00;;;;;;4977254;28;20077;-83
2022/12/27 09:26:27;;;;;;;15.77;13.80;;;17.90;50.50;;;;;;4976592;28;20054;-81
2022/12/27 09:28:53;;;;;;;7.97;7.18;;;16.20;53.40;;;;;;4958006;29;20025;-79
2022/12/27 09:31:21;;;;;;;15.95;6.63;;;15.30;54.10;;;;;;4976691;28;20027;-85
2022/12/27 09:33:50;;;;;;;4.75;2.42;;;14.50;55.00;;;;;;4977294;28;20085;-81
2022/12/27 09:36:21;;;;;;;6.60;3.53;;;13.60;56.70;;;;;;4976992;28;20031;-84
2022/12/27 09:38:48;;;;;;;8.13;4.15;;;13.30;58.10;;;;;;4976717;28;20034;-82
2022/12/27 09:41:38;;;;;;;9.20;6.72;;;13.90;57.50;;;;;;4977147;28;20086;-83
2022/12/27 09:44:06;;;;;;;;;;;14.40;55.50;;;;;;4978112;28;20026;-83
2022/12/27 09:47:18;;;;;;;4.65;2.58;;;14.40;55.40;;;;;;4974769;28;20009;-83
2022/12/27 09:49:48;;;;;;;3.50;2.10;;;15.00;52.90;;;;;;4937415;29;20039;-82
2022/12/27 09:52:33;;;;;;;16.53;2.60;;;15.10;53.50;;;;;;4912663;29;20036;-83
2022/12/27 09:55:11;;;;;;;6.40;3.13;;;15.80;52.00;;;;;;4585723;29;10000128;-81
2022/12/27 09:57:43;;;;;;;3.97;2.20;;;15.60;51.20;;;;;;4919928;29;20368;-82
2022/12/27 10:00:19;;;;;;;3.47;2.22;;;15.40;52.30;;;;;;4919933;29;20048;-82
2022/12/27 10:02:46;;;;;;;3.50;2.17;;;15.40;51.90;;;;;;4935531;29;20027;-85
2022/12/27 10:05:26;;;;;;;3.20;1.77;;;15.60;51.30;;;;;;4918320;29;20059;-77
2022/12/27 10:08:30;;;;;;;8.88;2.40;;;15.00;51.50;;;;;;4918740;29;20043;-83
2022/12/27 10:11:01;;;;;;;4.20;2.40;;;15.40;50.80;;;;;;4844379;29;20101;-83
2022/12/27 10:13:44;;;;;;;4.95;2.20;;;16.40;50.10;;;;;;4860671;29;20034;-79
2022/12/27 10:16:26;;;;;;;3.22;1.90;;;16.40;48.60;;;;;;4845085;29;20048;-82
2022/12/27 10:19:02;;;;;;;3.30;1.92;;;17.20;48.00;;;;;;4861333;29;20042;-81
2022/12/27 10:21:33;;;;;;;6.25;3.05;;;16.80;48.40;;;;;;4861745;29;20056;-81
2022/12/27 10:24:06;;;;;;;4.15;2.00;;;16.60;47.60;;;;;;4858944;29;20057;-79
2022/12/27 10:26:32;;;;;;;3.92;2.00;;;17.40;47.30;;;;;;4533136;29;10000887;-84
2022/12/27 10:29:12;;;;;;;3.83;2.80;;;18.30;46.10;;;;;;4914199;29;20040;-83
2022/12/27 10:31:41;;;;;;;3.45;1.90;;;18.50;45.00;;;;;;4900260;29;20159;-79
2022/12/27 10:34:12;;;;;;;5.45;3.25;;;18.30;44.90;;;;;;4899250;29;20040;-80
2022/12/27 10:36:38;;;;;;;;;;;18.20;46.30;;;;;;4914913;29;20043;-80
2022/12/27 10:39:14;;;;;;;4.32;2.60;;;16.50;46.30;;;;;;4915598;29;19911;-90
2022/12/27 10:42:06;;;;;;;5.32;2.22;;;16.40;48.40;;;;;;4898738;29;20062;-78
2022/12/27 10:44:32;;;;;;;4.55;2.47;;;16.10;47.80;;;;;;4913700;29;20032;-82
2022/12/27 10:46:58;;;;;;;5.28;2.33;;;16.30;47.10;;;;;;4924137;28;20089;-85
2022/12/27 10:49:29;;;;;;;4.53;2.20;;;15.90;46.90;;;;;;4962254;28;20031;-85
2022/12/27 10:52:09;;;;;;;3.00;1.80;;;15.60;46.70;;;;;;4975165;28;20022;-82
2022/12/27 10:54:57;;;;;;;4.72;2.30;;;15.90;47.70;;;;;;4978119;28;20509;-86
2022/12/27 10:57:25;;;;;;;3.20;2.20;;;16.50;46.60;;;;;;4971877;28;20035;-85
2022/12/27 11:00:18;;;;;;;6.22;1.92;;;15.50;46.90;;;;;;4955683;29;20023;-81
2022/12/27 11:03:01;;;;;;;4.03;2.35;;;15.10;48.00;;;;;;4967081;28;20063;-80
2022/12/27 11:05:29;;;;;;;3.83;2.20;;;14.80;49.00;;;;;;4956071;29;20051;-79
2022/12/27 11:07:56;;;;;;;2.88;1.85;;;15.00;49.20;;;;;;4955874;29;20058;-81
2022/12/27 11:10:25;;;;;;;2.90;1.70;;;14.90;49.40;;;;;;4956385;29;20027;-80
2022/12/27 11:13:01;;;;;;;4.32;2.50;;;15.20;49.40;;;;;;4939926;29;20046;-80
2022/12/27 11:15:33;;;;;;;3.42;2.13;;;15.50;49.40;;;;;;4940278;29;20037;-80
2022/12/27 11:18:10;;;;;;;6.88;2.40;;;15.40;49.20;;;;;;4939739;29;20027;-80
2022/12/27 11:20:50;;;;;;;7.75;6.65;;;14.80;50.00;;;;;;4938807;29;20030;-78
2022/12/27 11:23:21;;;;;;;6.97;5.97;;;14.80;50.70;;;;;;4956691;29;20027;-83
2022/12/27 11:26:03;;;;;;;4.20;1.98;;;14.20;51.10;;;;;;4939714;29;20133;-83
2022/12/27 11:28:43;;;;;;;3.53;2.17;;;13.40;51.80;;;;;;4939760;28;20023;-83
2022/12/27 11:31:19;;;;;;;4.03;2.40;;;12.90;52.40;;;;;;4940408;29;20146;-81
2022/12/27 11:33:51;;;;;;;21.67;12.55;;;12.10;54.70;;;;;;4940438;29;20035;-81
2022/12/27 11:36:28;;;;;;;17.15;8.35;;;12.40;54.10;;;;;;4957204;29;20039;-82
2022/12/27 11:38:54;;;;;;;6.68;2.63;;;12.60;54.10;;;;;;4955302;29;20026;-84
2022/12/27 11:41:45;;;;;;;23.17;10.27;;;13.00;52.50;;;;;;4940163;29;20024;-85
2022/12/27 11:44:19;;;;;;;;;;;12.70;52.10;;;;;;4956057;29;20094;-83
2022/12/27 11:47:22;;;;;;;4.20;2.38;;;12.40;53.10;;;;;;4955521;29;19910;-80
2022/12/27 11:50:01;;;;;;;4.13;2.67;;;12.50;52.60;;;;;;4956593;29;20105;-82
2022/12/27 11:52:42;;;;;;;4.78;3.10;;;12.90;52.00;;;;;;4955451;29;20026;-83
2022/12/27 11:55:43;;;;;;;5.70;1.80;;;13.30;51.70;;;;;;4955180;29;20110;-82
2022/12/27 11:58:42;;;;;;;3.13;1.80;;;13.60;50.00;;;;;;4897481;29;20155;-82
2022/12/27 12:01:39;;;;;;;4.93;2.28;;;13.00;49.60;;;;;;4897811;29;20146;-82
2022/12/27 12:04:42;;;;;;;5.68;1.88;;;12.70;50.20;;;;;;4897548;29;20036;-87
2022/12/27 12:07:39;;;;;;;2.85;1.70;;;12.40;50.30;;;;;;4897941;29;20033;-87
2022/12/27 12:10:17;;;;;;;3.28;1.85;;;11.30;50.70;;;;;;4892601;29;20049;-84
2022/12/27 12:13:01;;;;;;;3.90;2.10;;;11.40;52.60;;;;;;4916357;29;20055;-87
2022/12/27 12:15:48;;;;;;;4.10;2.10;;;11.80;51.90;;;;;;4916115;29;20028;-82
2022/12/27 12:18:19;;;;;;;9.13;3.40;;;11.90;51.70;;;;;;4915997;29;20496;-84
2022/12/27 12:21:11;;;;;;;6.03;2.60;;;12.30;51.30;;;;;;4915958;29;20099;-82
2022/12/27 12:23:56;;;;;;;3.88;2.08;;;12.50;50.90;;;;;;4900442;29;20028;-82
2022/12/27 12:26:24;;;;;;;4.18;2.03;;;12.70;50.50;;;;;;4916435;29;20131;-82
2022/12/27 12:29:14;;;;;;;3.00;1.80;;;12.20;49.70;;;;;;4916862;29;20033;-82
2022/12/27 12:31:52;;;;;;;8.48;6.63;;;11.80;49.10;;;;;;4930710;28;20032;-85
2022/12/27 12:34:45;;;;;;;5.80;2.80;;;11.80;49.50;;;;;;4958721;29;20367;-83
2022/12/27 12:37:24;;;;;;;4.20;2.28;;;11.60;50.40;;;;;;4960181;29;20062;-85
2022/12/27 12:40:16;;;;;;;4.40;1.90;;;11.40;50.90;;;;;;4959927;29;20019;-83
2022/12/27 12:43:03;;;;;;;4.35;2.50;;;11.30;51.00;;;;;;4959916;28;20103;-82
2022/12/27 12:46:04;;;;;;;4.32;2.70;;;11.70;51.50;;;;;;4958378;29;20043;-83
2022/12/27 12:49:05;;;;;;;4.55;1.80;;;12.30;51.10;;;;;;4958947;29;20117;-83
2022/12/27 12:51:53;;;;;;;3.47;2.47;;;13.00;49.90;;;;;;4938805;29;20040;-86
2022/12/27 12:54:28;;;;;;;4.95;3.05;;;12.50;49.40;;;;;;4923009;29;20035;-81
2022/12/27 12:57:11;;;;;;;8.88;1.98;;;12.00;50.70;;;;;;4262507;28;10000226;-87
2022/12/27 13:00:14;;;;;;;4.10;1.90;;;11.90;50.60;;;;;;4921669;29;20027;-82
2022/12/27 13:03:02;;;;;;;4.82;2.40;;;12.10;50.30;;;;;;4938394;29;20118;-85
2022/12/27 13:05:52;;;;;;;3.30;2.00;;;11.90;50.10;;;;;;4938731;29;20048;-83
2022/12/27 13:09:02;;;;;;;4.95;2.10;;;11.50;50.30;;;;;;4922517;29;20031;-82
2022/12/27 13:11:31;;;;;;;3.45;2.10;;;11.60;50.70;;;;;;4917824;29;20135;-84
2022/12/27 13:14:17;;;;;;;3.40;2.10;;;12.40;50.40;;;;;;4938222;29;20039;-83
2022/12/27 13:16:49;;;;;;;3.38;2.03;;;13.00;50.00;;;;;;4938940;29;20067;-81
2022/12/27 13:19:32;;;;;;;5.78;2.80;;;13.10;48.60;;;;;;4938205;29;20024;-81
2022/12/27 13:22:27;;;;;;;4.30;2.00;;;13.00;49.10;;;;;;4938410;29;20104;-82
2022/12/27 13:25:14;;;;;;;3.00;1.80;;;13.00;49.00;;;;;;4953500;29;20035;-89
2022/12/27 13:28:09;;;;;;;4.70;2.10;;;12.90;48.80;;;;;;4923683;29;20032;-82
2022/12/27 13:31:13;;;;;;;4.18;2.20;;;12.90;48.90;;;;;;4957311;29;20019;-83
2022/12/27 13:34:13;;;;;;;4.60;2.10;;;12.60;48.90;;;;;;4958796;29;20082;-82
2022/12/27 13:36:44;;;;;;;3.60;1.80;;;12.70;50.00;;;;;;4957558;29;20054;-82
2022/12/27 13:39:31;;;;;;;5.07;3.30;;;12.80;49.10;;;;;;4958698;29;20722;-83
2022/12/27 13:42:24;;;;;;;3.85;1.90;;;13.20;48.90;;;;;;4973480;28;20027;-85
2022/12/27 13:45:25;;;;;;;3.67;1.80;;;13.60;48.90;;;;;;4973303;28;20042;-81
2022/12/27 13:48:02;;;;;;;4.13;2.40;;;13.90;48.20;;;;;;4953757;29;20044;-82
2022/12/27 13:51:11;;;;;;;3.58;2.03;;;13.70;48.20;;;;;;4954035;29;20035;-83
2022/12/27 13:53:58;;;;;;;7.57;2.83;;;13.50;48.00;;;;;;4953747;29;20028;-83
2022/12/27 13:56:27;;;;;;;6.43;2.58;;;13.00;48.30;;;;;;4953417;29;20030;-83
2022/12/27 13:59:40;;;;;;;6.13;2.95;;;12.70;48.70;;;;;;4937236;29;20043;-83
2022/12/27 14:03:33;;;;;;;8.57;4.03;;;13.00;48.70;;;;;;5134080;27;20368;-85
2022/12/27 14:06:16;;;;;;;6.57;3.10;;;13.50;49.40;;;;;;5131054;28;20427;-84
2022/12/27 14:08:54;;;;;;;5.32;2.80;;;13.90;48.80;;;;;;5132037;28;20386;-83
2022/12/27 14:11:40;;;;;;;9.48;4.30;;;13.70;47.50;;;;;;5133075;28;20016;-83
2022/12/27 14:14:11;;;;;;;10.85;4.55;;;13.40;48.10;;;;;;5132902;28;20048;-84
2022/12/27 14:16:40;;;;;;;11.07;5.60;;;13.40;48.60;;;;;;5133125;28;20027;-84
2022/12/27 14:19:43;;;;;;;9.23;5.47;;;13.20;48.60;;;;;;5132260;28;20378;-83
2022/12/27 14:22:27;;;;;;;4.80;2.30;;;13.20;48.20;;;;;;5131465;28;20032;-82
2022/12/27 14:25:29;;;;;;;5.53;2.85;;;12.90;48.90;;;;;;5131521;28;20058;-83
2022/12/27 14:28:28;;;;;;;8.20;3.17;;;12.70;49.50;;;;;;5052757;28;20025;-83
2022/12/27 14:31:24;;;;;;;5.10;2.20;;;12.90;49.00;;;;;;5069396;28;20036;-83
2022/12/27 14:34:26;;;;;;;6.80;3.70;;;12.90;48.70;;;;;;5052217;28;20028;-82
2022/12/27 14:37:08;;;;;;;3.53;2.13;;;12.90;49.60;;;;;;5052719;28;20037;-84
2022/12/27 14:40:10;;;;;;;4.70;2.08;;;12.60;49.00;;;;;;5052862;28;20236;-83
2022/12/27 14:42:54;;;;;;;3.45;2.20;;;12.20;49.30;;;;;;5052437;28;20045;-85
2022/12/27 14:45:56;;;;;;;5.60;3.30;;;12.10;49.30;;;;;;5052204;28;20164;-83
2022/12/27 14:48:34;;;;;;;6.10;3.50;;;12.30;50.20;;;;;;5052260;28;20028;-84
2022/12/27 14:51:05;;;;;;;4.80;2.40;;;12.60;49.90;;;;;;5068927;28;20096;-82
2022/12/27 14:54:01;;;;;;;7.00;2.95;;;12.90;48.80;;;;;;5068885;28;20029;-84
2022/12/27 14:56:50;;;;;;;5.28;2.63;;;13.20;48.30;;;;;;5051837;28;20036;-83